sensor_id;sensor_type;location;lat;lon;timestamp;temperature;humidity
33105;DHT22;19476;51.448;6.674;2023-02-28T00:00:22;10.50;37.10
33105;DHT22;19476;51.448;6.674;2023-02-28T00:02:48;10.50;36.90
33105;DHT22;19476;51.448;6.674;2023-02-28T00:05:16;10.50;36.90
33105;DHT22;19476;51.448;6.674;2023-02-28T00:07:42;10.40;37.00
33105;DHT22;19476;51.448;6.674;2023-02-28T00:10:11;10.40;37.00
33105;DHT22;19476;51.448;6.674;2023-02-28T00:12:37;10.40;37.10
33105;DHT22;19476;51.448;6.674;2023-02-28T00:15:09;10.40;37.10
33105;DHT22;19476;51.448;6.674;2023-02-28T00:17:35;10.40;37.20
33105;DHT22;19476;51.448;6.674;2023-02-28T00:20:00;10.30;37.10
33105;DHT22;19476;51.448;6.674;2023-02-28T00:22:42;10.30;37.10
33105;DHT22;19476;51.448;6.674;2023-02-28T00:25:10;10.30;37.30
33105;DHT22;19476;51.448;6.674;2023-02-28T00:27:37;10.20;37.20
33105;DHT22;19476;51.448;6.674;2023-02-28T00:30:04;10.20;37.20
33105;DHT22;19476;51.448;6.674;2023-02-28T00:32:30;10.20;37.30
33105;DHT22;19476;51.448;6.674;2023-02-28T00:34:56;10.20;37.30
33105;DHT22;19476;51.448;6.674;2023-02-28T00:37:22;10.20;37.30
33105;DHT22;19476;51.448;6.674;2023-02-28T00:39:47;10.20;37.40
33105;DHT22;19476;51.448;6.674;2023-02-28T00:42:13;10.10;37.40
33105;DHT22;19476;51.448;6.674;2023-02-28T00:44:39;10.10;37.40
33105;DHT22;19476;51.448;6.674;2023-02-28T00:47:05;10.10;37.40
33105;DHT22;19476;51.448;6.674;2023-02-28T00:49:31;10.10;37.40
33105;DHT22;19476;51.448;6.674;2023-02-28T00:51:57;10.10;37.40
33105;DHT22;19476;51.448;6.674;2023-02-28T00:54:23;10.00;37.40
33105;DHT22;19476;51.448;6.674;2023-02-28T00:56:49;10.00;37.50
33105;DHT22;19476;51.448;6.674;2023-02-28T00:59:16;10.00;37.50
33105;DHT22;19476;51.448;6.674;2023-02-28T01:01:44;10.00;37.60
33105;DHT22;19476;51.448;6.674;2023-02-28T01:04:10;10.00;37.60
33105;DHT22;19476;51.448;6.674;2023-02-28T01:06:36;10.00;37.50
33105;DHT22;19476;51.448;6.674;2023-02-28T01:09:03;9.90;37.40
33105;DHT22;19476;51.448;6.674;2023-02-28T01:11:29;9.90;37.50
33105;DHT22;19476;51.448;6.674;2023-02-28T01:13:55;9.90;37.50
33105;DHT22;19476;51.448;6.674;2023-02-28T01:16:21;9.90;37.60
33105;DHT22;19476;51.448;6.674;2023-02-28T01:18:47;9.90;37.50
33105;DHT22;19476;51.448;6.674;2023-02-28T01:21:15;9.80;37.50
33105;DHT22;19476;51.448;6.674;2023-02-28T01:23:41;9.80;37.50
33105;DHT22;19476;51.448;6.674;2023-02-28T01:26:10;9.80;37.50
33105;DHT22;19476;51.448;6.674;2023-02-28T01:28:36;9.80;37.60
33105;DHT22;19476;51.448;6.674;2023-02-28T01:31:02;9.80;37.50
33105;DHT22;19476;51.448;6.674;2023-02-28T01:33:29;9.80;37.50
33105;DHT22;19476;51.448;6.674;2023-02-28T01:36:23;9.80;37.50
33105;DHT22;19476;51.448;6.674;2023-02-28T01:38:50;9.80;37.60
33105;DHT22;19476;51.448;6.674;2023-02-28T01:41:25;9.70;37.40
33105;DHT22;19476;51.448;6.674;2023-02-28T01:44:53;9.70;37.50
33105;DHT22;19476;51.448;6.674;2023-02-28T01:46:52;9.70;37.50
33105;DHT22;19476;51.448;6.674;2023-02-28T01:49:18;9.60;37.40
33105;DHT22;19476;51.448;6.674;2023-02-28T01:51:50;9.60;37.50
33105;DHT22;19476;51.448;6.674;2023-02-28T01:54:24;9.60;37.60
33105;DHT22;19476;51.448;6.674;2023-02-28T01:57:07;9.60;37.60
33105;DHT22;19476;51.448;6.674;2023-02-28T02:02:04;9.60;37.60
33105;DHT22;19476;51.448;6.674;2023-02-28T02:04:39;9.50;37.60
33105;DHT22;19476;51.448;6.674;2023-02-28T02:07:08;9.50;37.80
33105;DHT22;19476;51.448;6.674;2023-02-28T02:09:34;9.50;37.70
33105;DHT22;19476;51.448;6.674;2023-02-28T02:12:07;9.50;37.70
33105;DHT22;19476;51.448;6.674;2023-02-28T02:14:45;9.40;37.80
33105;DHT22;19476;51.448;6.674;2023-02-28T02:17:32;9.40;37.80
33105;DHT22;19476;51.448;6.674;2023-02-28T02:36:51;9.30;38.70
33105;DHT22;19476;51.448;6.674;2023-02-28T02:39:44;9.30;38.20
33105;DHT22;19476;51.448;6.674;2023-02-28T02:42:23;9.30;38.30
33105;DHT22;19476;51.448;6.674;2023-02-28T02:44:58;9.30;38.20
33105;DHT22;19476;51.448;6.674;2023-02-28T02:47:28;9.30;38.20
33105;DHT22;19476;51.448;6.674;2023-02-28T02:49:57;9.30;38.20
33105;DHT22;19476;51.448;6.674;2023-02-28T02:52:32;9.30;38.20
33105;DHT22;19476;51.448;6.674;2023-02-28T02:55:02;9.30;38.30
33105;DHT22;19476;51.448;6.674;2023-02-28T03:00:21;9.30;38.30
33105;DHT22;19476;51.448;6.674;2023-02-28T03:02:50;9.30;38.20
33105;DHT22;19476;51.448;6.674;2023-02-28T03:05:33;9.30;38.20
33105;DHT22;19476;51.448;6.674;2023-02-28T03:07:59;9.30;38.20
33105;DHT22;19476;51.448;6.674;2023-02-28T03:10:49;9.30;38.20
33105;DHT22;19476;51.448;6.674;2023-02-28T03:22:33;9.30;38.30
33105;DHT22;19476;51.448;6.674;2023-02-28T03:25:29;9.30;38.20
33105;DHT22;19476;51.448;6.674;2023-02-28T03:28:09;9.30;38.20
33105;DHT22;19476;51.448;6.674;2023-02-28T03:33:32;9.30;38.20
33105;DHT22;19476;51.448;6.674;2023-02-28T03:36:16;9.40;38.20
33105;DHT22;19476;51.448;6.674;2023-02-28T03:41:23;9.30;38.10
33105;DHT22;19476;51.448;6.674;2023-02-28T03:44:09;9.30;38.10
33105;DHT22;19476;51.448;6.674;2023-02-28T03:46:45;9.30;38.00
33105;DHT22;19476;51.448;6.674;2023-02-28T03:49:24;9.10;37.90
33105;DHT22;19476;51.448;6.674;2023-02-28T03:51:53;9.30;38.00
33105;DHT22;19476;51.448;6.674;2023-02-28T03:54:23;9.30;38.00
33105;DHT22;19476;51.448;6.674;2023-02-28T03:57:12;9.30;38.00
33105;DHT22;19476;51.448;6.674;2023-02-28T03:59:47;9.30;38.00
33105;DHT22;19476;51.448;6.674;2023-02-28T04:02:14;9.20;37.90
33105;DHT22;19476;51.448;6.674;2023-02-28T04:04:40;9.30;37.80
33105;DHT22;19476;51.448;6.674;2023-02-28T04:07:11;9.30;37.80
33105;DHT22;19476;51.448;6.674;2023-02-28T04:09:37;9.30;37.80
33105;DHT22;19476;51.448;6.674;2023-02-28T04:12:03;9.30;37.80
33105;DHT22;19476;51.448;6.674;2023-02-28T04:14:29;9.30;37.70
33105;DHT22;19476;51.448;6.674;2023-02-28T04:16:55;9.20;37.60
33105;DHT22;19476;51.448;6.674;2023-02-28T04:19:20;9.20;37.60
33105;DHT22;19476;51.448;6.674;2023-02-28T04:21:51;9.20;37.60
33105;DHT22;19476;51.448;6.674;2023-02-28T04:24:21;9.20;37.60
33105;DHT22;19476;51.448;6.674;2023-02-28T04:26:50;9.20;37.50
33105;DHT22;19476;51.448;6.674;2023-02-28T04:29:27;9.10;37.50
33105;DHT22;19476;51.448;6.674;2023-02-28T04:31:54;9.10;37.40
33105;DHT22;19476;51.448;6.674;2023-02-28T04:34:21;9.20;37.50
33105;DHT22;19476;51.448;6.674;2023-02-28T04:36:47;9.10;37.30
33105;DHT22;19476;51.448;6.674;2023-02-28T04:39:16;9.10;37.30
33105;DHT22;19476;51.448;6.674;2023-02-28T04:41:44;9.10;37.20
33105;DHT22;19476;51.448;6.674;2023-02-28T04:44:10;9.00;37.30
33105;DHT22;19476;51.448;6.674;2023-02-28T04:46:36;9.00;37.20
33105;DHT22;19476;51.448;6.674;2023-02-28T04:49:02;9.00;37.10
33105;DHT22;19476;51.448;6.674;2023-02-28T04:51:28;9.00;37.20
33105;DHT22;19476;51.448;6.674;2023-02-28T04:53:54;9.00;37.10
33105;DHT22;19476;51.448;6.674;2023-02-28T04:56:20;9.00;37.10
33105;DHT22;19476;51.448;6.674;2023-02-28T04:58:46;9.00;37.10
33105;DHT22;19476;51.448;6.674;2023-02-28T05:03:42;9.00;37.00
33105;DHT22;19476;51.448;6.674;2023-02-28T05:06:09;9.00;37.10
33105;DHT22;19476;51.448;6.674;2023-02-28T05:08:35;9.00;37.00
33105;DHT22;19476;51.448;6.674;2023-02-28T05:11:02;8.90;36.90
33105;DHT22;19476;51.448;6.674;2023-02-28T05:13:28;8.90;37.00
33105;DHT22;19476;51.448;6.674;2023-02-28T05:15:54;8.90;36.90
33105;DHT22;19476;51.448;6.674;2023-02-28T05:18:20;8.90;36.90
33105;DHT22;19476;51.448;6.674;2023-02-28T05:20:46;8.90;36.90
33105;DHT22;19476;51.448;6.674;2023-02-28T05:23:13;8.90;36.80
33105;DHT22;19476;51.448;6.674;2023-02-28T05:25:40;8.90;36.80
33105;DHT22;19476;51.448;6.674;2023-02-28T05:28:06;8.90;36.80
33105;DHT22;19476;51.448;6.674;2023-02-28T05:30:32;8.90;36.70
33105;DHT22;19476;51.448;6.674;2023-02-28T05:32:58;8.90;36.60
33105;DHT22;19476;51.448;6.674;2023-02-28T05:35:25;8.90;36.60
33105;DHT22;19476;51.448;6.674;2023-02-28T05:37:51;8.90;36.60
33105;DHT22;19476;51.448;6.674;2023-02-28T05:40:17;8.90;36.50
33105;DHT22;19476;51.448;6.674;2023-02-28T05:42:46;8.90;36.50
33105;DHT22;19476;51.448;6.674;2023-02-28T05:45:12;8.90;36.50
33105;DHT22;19476;51.448;6.674;2023-02-28T05:47:38;8.90;36.30
33105;DHT22;19476;51.448;6.674;2023-02-28T05:50:05;8.90;36.30
33105;DHT22;19476;51.448;6.674;2023-02-28T05:52:31;8.90;36.30
33105;DHT22;19476;51.448;6.674;2023-02-28T05:54:57;8.90;36.30
33105;DHT22;19476;51.448;6.674;2023-02-28T05:57:23;8.90;36.20
33105;DHT22;19476;51.448;6.674;2023-02-28T05:59:49;8.90;36.30
33105;DHT22;19476;51.448;6.674;2023-02-28T06:02:16;8.90;36.20
33105;DHT22;19476;51.448;6.674;2023-02-28T06:04:43;8.90;36.20
33105;DHT22;19476;51.448;6.674;2023-02-28T06:07:09;8.90;36.10
33105;DHT22;19476;51.448;6.674;2023-02-28T06:09:35;8.90;36.30
33105;DHT22;19476;51.448;6.674;2023-02-28T06:12:03;8.90;36.20
33105;DHT22;19476;51.448;6.674;2023-02-28T06:14:33;8.90;36.20
33105;DHT22;19476;51.448;6.674;2023-02-28T06:17:00;8.80;36.20
33105;DHT22;19476;51.448;6.674;2023-02-28T06:19:26;8.90;36.20
33105;DHT22;19476;51.448;6.674;2023-02-28T06:21:53;8.90;36.20
33105;DHT22;19476;51.448;6.674;2023-02-28T06:24:24;8.90;36.20
33105;DHT22;19476;51.448;6.674;2023-02-28T06:26:50;8.90;36.20
33105;DHT22;19476;51.448;6.674;2023-02-28T06:29:16;8.90;36.10
33105;DHT22;19476;51.448;6.674;2023-02-28T06:31:44;8.80;36.10
33105;DHT22;19476;51.448;6.674;2023-02-28T06:34:11;8.90;36.10
33105;DHT22;19476;51.448;6.674;2023-02-28T06:36:38;8.90;36.10
33105;DHT22;19476;51.448;6.674;2023-02-28T06:39:05;8.90;36.10
33105;DHT22;19476;51.448;6.674;2023-02-28T06:41:31;8.90;36.10
33105;DHT22;19476;51.448;6.674;2023-02-28T06:43:56;8.90;36.00
33105;DHT22;19476;51.448;6.674;2023-02-28T06:46:23;8.90;36.00
33105;DHT22;19476;51.448;6.674;2023-02-28T06:48:49;8.80;36.00
33105;DHT22;19476;51.448;6.674;2023-02-28T06:51:18;8.80;36.00
33105;DHT22;19476;51.448;6.674;2023-02-28T06:53:46;8.80;36.00
33105;DHT22;19476;51.448;6.674;2023-02-28T06:56:14;8.80;36.00
33105;DHT22;19476;51.448;6.674;2023-02-28T06:58:40;8.80;36.00
33105;DHT22;19476;51.448;6.674;2023-02-28T07:01:07;8.80;36.10
33105;DHT22;19476;51.448;6.674;2023-02-28T07:03:35;8.70;36.10
33105;DHT22;19476;51.448;6.674;2023-02-28T07:06:01;8.70;36.20
33105;DHT22;19476;51.448;6.674;2023-02-28T07:08:28;8.70;36.20
33105;DHT22;19476;51.448;6.674;2023-02-28T07:10:54;8.70;36.20
33105;DHT22;19476;51.448;6.674;2023-02-28T07:13:21;8.80;36.30
33105;DHT22;19476;51.448;6.674;2023-02-28T07:15:56;8.80;36.40
33105;DHT22;19476;51.448;6.674;2023-02-28T07:18:22;8.80;36.40
33105;DHT22;19476;51.448;6.674;2023-02-28T07:20:48;8.80;36.40
33105;DHT22;19476;51.448;6.674;2023-02-28T07:23:14;8.80;36.30
33105;DHT22;19476;51.448;6.674;2023-02-28T07:25:40;8.80;36.20
33105;DHT22;19476;51.448;6.674;2023-02-28T07:28:05;8.90;36.20
33105;DHT22;19476;51.448;6.674;2023-02-28T07:30:31;8.90;36.10
33105;DHT22;19476;51.448;6.674;2023-02-28T07:32:57;8.90;36.10
33105;DHT22;19476;51.448;6.674;2023-02-28T07:35:23;8.90;36.00
33105;DHT22;19476;51.448;6.674;2023-02-28T07:37:49;8.90;35.90
33105;DHT22;19476;51.448;6.674;2023-02-28T07:40:16;8.90;35.90
33105;DHT22;19476;51.448;6.674;2023-02-28T07:42:43;8.90;35.90
33105;DHT22;19476;51.448;6.674;2023-02-28T07:45:11;9.00;36.00
33105;DHT22;19476;51.448;6.674;2023-02-28T07:47:39;8.90;36.20
33105;DHT22;19476;51.448;6.674;2023-02-28T07:50:07;9.00;36.30
33105;DHT22;19476;51.448;6.674;2023-02-28T07:52:33;9.00;36.30
33105;DHT22;19476;51.448;6.674;2023-02-28T07:54:59;9.10;36.20
33105;DHT22;19476;51.448;6.674;2023-02-28T07:57:25;9.10;36.10
33105;DHT22;19476;51.448;6.674;2023-02-28T07:59:51;9.10;36.10
33105;DHT22;19476;51.448;6.674;2023-02-28T08:02:18;9.10;36.10
33105;DHT22;19476;51.448;6.674;2023-02-28T08:04:44;9.20;36.20
33105;DHT22;19476;51.448;6.674;2023-02-28T08:07:12;9.20;36.20
33105;DHT22;19476;51.448;6.674;2023-02-28T08:09:39;9.20;36.20
33105;DHT22;19476;51.448;6.674;2023-02-28T08:12:06;9.30;36.30
33105;DHT22;19476;51.448;6.674;2023-02-28T08:14:33;9.40;36.30
33105;DHT22;19476;51.448;6.674;2023-02-28T08:16:59;9.40;36.20
33105;DHT22;19476;51.448;6.674;2023-02-28T08:19:25;9.50;36.10
33105;DHT22;19476;51.448;6.674;2023-02-28T08:21:51;9.60;36.10
33105;DHT22;19476;51.448;6.674;2023-02-28T08:24:17;9.60;36.00
33105;DHT22;19476;51.448;6.674;2023-02-28T08:26:42;9.60;35.80
33105;DHT22;19476;51.448;6.674;2023-02-28T08:29:08;9.70;35.70
33105;DHT22;19476;51.448;6.674;2023-02-28T08:31:34;9.80;35.10
33105;DHT22;19476;51.448;6.674;2023-02-28T08:34:14;9.90;35.60
33105;DHT22;19476;51.448;6.674;2023-02-28T08:36:40;9.90;35.30
33105;DHT22;19476;51.448;6.674;2023-02-28T08:39:07;10.00;35.40
33105;DHT22;19476;51.448;6.674;2023-02-28T08:41:34;10.00;35.00
33105;DHT22;19476;51.448;6.674;2023-02-28T08:44:00;10.10;35.00
33105;DHT22;19476;51.448;6.674;2023-02-28T08:46:26;10.10;34.90
33105;DHT22;19476;51.448;6.674;2023-02-28T08:48:53;10.20;34.70
33105;DHT22;19476;51.448;6.674;2023-02-28T08:51:20;10.20;34.60
33105;DHT22;19476;51.448;6.674;2023-02-28T08:53:59;10.20;34.40
33105;DHT22;19476;51.448;6.674;2023-02-28T08:56:28;10.30;34.10
33105;DHT22;19476;51.448;6.674;2023-02-28T08:58:56;10.30;34.40
33105;DHT22;19476;51.448;6.674;2023-02-28T09:01:25;10.40;33.70
33105;DHT22;19476;51.448;6.674;2023-02-28T09:03:52;10.40;33.50
33105;DHT22;19476;51.448;6.674;2023-02-28T09:06:19;10.50;33.40
33105;DHT22;19476;51.448;6.674;2023-02-28T09:08:45;10.50;33.00
33105;DHT22;19476;51.448;6.674;2023-02-28T09:11:11;10.50;32.60
33105;DHT22;19476;51.448;6.674;2023-02-28T09:13:38;10.50;32.50
33105;DHT22;19476;51.448;6.674;2023-02-28T09:16:06;10.40;32.60
33105;DHT22;19476;51.448;6.674;2023-02-28T09:18:35;10.50;32.40
33105;DHT22;19476;51.448;6.674;2023-02-28T09:21:09;10.50;32.30
33105;DHT22;19476;51.448;6.674;2023-02-28T09:23:35;10.50;32.00
33105;DHT22;19476;51.448;6.674;2023-02-28T09:26:04;10.60;32.20
33105;DHT22;19476;51.448;6.674;2023-02-28T09:28:30;10.60;31.90
33105;DHT22;19476;51.448;6.674;2023-02-28T09:30:56;10.60;31.80
33105;DHT22;19476;51.448;6.674;2023-02-28T09:33:24;10.60;31.90
33105;DHT22;19476;51.448;6.674;2023-02-28T09:35:56;10.70;31.80
33105;DHT22;19476;51.448;6.674;2023-02-28T09:38:22;10.70;31.60
33105;DHT22;19476;51.448;6.674;2023-02-28T09:40:55;10.80;31.50
33105;DHT22;19476;51.448;6.674;2023-02-28T09:43:25;10.80;30.80
33105;DHT22;19476;51.448;6.674;2023-02-28T09:45:53;10.90;31.20
33105;DHT22;19476;51.448;6.674;2023-02-28T09:48:32;10.90;31.20
33105;DHT22;19476;51.448;6.674;2023-02-28T09:51:23;11.00;30.90
33105;DHT22;19476;51.448;6.674;2023-02-28T09:53:53;11.00;30.10
33105;DHT22;19476;51.448;6.674;2023-02-28T09:56:27;11.00;30.60
33105;DHT22;19476;51.448;6.674;2023-02-28T10:04:59;11.00;28.90
33105;DHT22;19476;51.448;6.674;2023-02-28T10:10:41;10.90;28.80
33105;DHT22;19476;51.448;6.674;2023-02-28T10:13:33;10.80;29.20
33105;DHT22;19476;51.448;6.674;2023-02-28T10:16:13;10.80;29.40
33105;DHT22;19476;51.448;6.674;2023-02-28T10:18:56;10.90;29.20
33105;DHT22;19476;51.448;6.674;2023-02-28T10:21:35;10.80;29.00
33105;DHT22;19476;51.448;6.674;2023-02-28T10:24:25;10.80;29.30
33105;DHT22;19476;51.448;6.674;2023-02-28T10:26:56;10.90;29.60
33105;DHT22;19476;51.448;6.674;2023-02-28T10:29:26;10.90;29.50
33105;DHT22;19476;51.448;6.674;2023-02-28T10:31:52;11.00;29.60
33105;DHT22;19476;51.448;6.674;2023-02-28T10:34:17;11.00;29.40
33105;DHT22;19476;51.448;6.674;2023-02-28T10:43:24;11.10;28.60
33105;DHT22;19476;51.448;6.674;2023-02-28T10:45:58;11.10;28.80
33105;DHT22;19476;51.448;6.674;2023-02-28T10:48:45;11.10;29.00
33105;DHT22;19476;51.448;6.674;2023-02-28T10:51:15;11.00;29.10
33105;DHT22;19476;51.448;6.674;2023-02-28T11:03:48;10.80;29.20
33105;DHT22;19476;51.448;6.674;2023-02-28T11:06:29;10.80;29.10
33105;DHT22;19476;51.448;6.674;2023-02-28T11:09:15;10.80;29.10
33105;DHT22;19476;51.448;6.674;2023-02-28T11:11:45;10.80;29.30
33105;DHT22;19476;51.448;6.674;2023-02-28T11:14:21;10.80;29.20
33105;DHT22;19476;51.448;6.674;2023-02-28T11:16:48;10.80;29.30
33105;DHT22;19476;51.448;6.674;2023-02-28T11:19:28;10.70;29.40
33105;DHT22;19476;51.448;6.674;2023-02-28T11:25:35;10.70;29.20
33105;DHT22;19476;51.448;6.674;2023-02-28T11:28:04;10.70;29.50
33105;DHT22;19476;51.448;6.674;2023-02-28T11:30:38;10.70;29.80
33105;DHT22;19476;51.448;6.674;2023-02-28T11:36:00;10.70;29.30
33105;DHT22;19476;51.448;6.674;2023-02-28T11:38:26;10.60;29.50
33105;DHT22;19476;51.448;6.674;2023-02-28T11:43:46;10.80;29.60
33105;DHT22;19476;51.448;6.674;2023-02-28T11:52:05;11.20;29.40
33105;DHT22;19476;51.448;6.674;2023-02-28T11:57:57;11.50;29.20
33105;DHT22;19476;51.448;6.674;2023-02-28T12:28:46;13.00;27.30
33105;DHT22;19476;51.448;6.674;2023-02-28T12:31:35;13.10;27.20
33105;DHT22;19476;51.448;6.674;2023-02-28T12:34:10;13.10;27.30
33105;DHT22;19476;51.448;6.674;2023-02-28T12:36:37;13.10;27.10
33105;DHT22;19476;51.448;6.674;2023-02-28T12:39:10;13.20;27.30
33105;DHT22;19476;51.448;6.674;2023-02-28T12:42:07;13.20;27.70
33105;DHT22;19476;51.448;6.674;2023-02-28T12:44:49;13.30;27.30
33105;DHT22;19476;51.448;6.674;2023-02-28T12:47:17;13.40;27.30
33105;DHT22;19476;51.448;6.674;2023-02-28T12:49:51;13.40;27.00
33105;DHT22;19476;51.448;6.674;2023-02-28T12:55:43;13.60;27.30
33105;DHT22;19476;51.448;6.674;2023-02-28T12:58:34;13.70;27.10
33105;DHT22;19476;51.448;6.674;2023-02-28T13:09:40;14.20;26.70
33105;DHT22;19476;51.448;6.674;2023-02-28T13:12:13;14.40;27.00
33105;DHT22;19476;51.448;6.674;2023-02-28T13:14:40;14.50;26.70
33105;DHT22;19476;51.448;6.674;2023-02-28T13:17:10;14.60;27.00
33105;DHT22;19476;51.448;6.674;2023-02-28T13:24:57;15.10;26.90
33105;DHT22;19476;51.448;6.674;2023-02-28T13:27:31;15.20;26.40
33105;DHT22;19476;51.448;6.674;2023-02-28T13:29:58;15.30;26.80
33105;DHT22;19476;51.448;6.674;2023-02-28T13:32:32;15.60;27.00
33105;DHT22;19476;51.448;6.674;2023-02-28T13:39:56;15.90;26.40
33105;DHT22;19476;51.448;6.674;2023-02-28T13:47:36;16.40;26.30
33105;DHT22;19476;51.448;6.674;2023-02-28T13:52:55;16.60;25.90
33105;DHT22;19476;51.448;6.674;2023-02-28T13:55:29;16.70;26.20
33105;DHT22;19476;51.448;6.674;2023-02-28T13:58:27;16.80;25.80
33105;DHT22;19476;51.448;6.674;2023-02-28T14:07:05;17.10;25.40
33105;DHT22;19476;51.448;6.674;2023-02-28T14:09:45;17.30;25.80
33105;DHT22;19476;51.448;6.674;2023-02-28T14:14:56;17.40;25.60
33105;DHT22;19476;51.448;6.674;2023-02-28T14:17:23;17.60;25.30
33105;DHT22;19476;51.448;6.674;2023-02-28T14:19:49;17.60;25.00
33105;DHT22;19476;51.448;6.674;2023-02-28T14:38:29;18.00;25.30
33105;DHT22;19476;51.448;6.674;2023-02-28T14:40:58;18.00;25.30
33105;DHT22;19476;51.448;6.674;2023-02-28T14:43:27;18.30;25.20
33105;DHT22;19476;51.448;6.674;2023-02-28T14:46:02;18.40;24.70
33105;DHT22;19476;51.448;6.674;2023-02-28T14:48:28;18.50;24.10
33105;DHT22;19476;51.448;6.674;2023-02-28T14:50:57;18.50;24.50
33105;DHT22;19476;51.448;6.674;2023-02-28T14:53:27;18.60;24.40
33105;DHT22;19476;51.448;6.674;2023-02-28T14:55:53;18.50;24.50
33105;DHT22;19476;51.448;6.674;2023-02-28T14:58:33;18.40;24.60
33105;DHT22;19476;51.448;6.674;2023-02-28T15:01:01;18.20;24.40
33105;DHT22;19476;51.448;6.674;2023-02-28T15:03:33;17.90;24.50
33105;DHT22;19476;51.448;6.674;2023-02-28T15:06:03;17.60;24.50
33105;DHT22;19476;51.448;6.674;2023-02-28T15:08:30;17.40;24.90
33105;DHT22;19476;51.448;6.674;2023-02-28T15:11:16;17.10;24.80
33105;DHT22;19476;51.448;6.674;2023-02-28T15:13:52;16.70;24.90
33105;DHT22;19476;51.448;6.674;2023-02-28T15:16:25;16.40;25.30
33105;DHT22;19476;51.448;6.674;2023-02-28T15:19:05;16.20;25.60
33105;DHT22;19476;51.448;6.674;2023-02-28T15:21:34;15.90;25.70
33105;DHT22;19476;51.448;6.674;2023-02-28T15:24:25;15.70;25.70
33105;DHT22;19476;51.448;6.674;2023-02-28T15:27:01;15.50;25.70
33105;DHT22;19476;51.448;6.674;2023-02-28T15:29:29;15.30;25.90
33105;DHT22;19476;51.448;6.674;2023-02-28T15:32:05;15.20;26.30
33105;DHT22;19476;51.448;6.674;2023-02-28T15:34:40;15.00;26.50
33105;DHT22;19476;51.448;6.674;2023-02-28T15:37:33;14.20;26.50
33105;DHT22;19476;51.448;6.674;2023-02-28T15:40:13;14.70;26.90
33105;DHT22;19476;51.448;6.674;2023-02-28T15:42:40;14.60;27.10
33105;DHT22;19476;51.448;6.674;2023-02-28T15:45:28;14.50;27.10
33105;DHT22;19476;51.448;6.674;2023-02-28T15:47:54;14.40;27.20
33105;DHT22;19476;51.448;6.674;2023-02-28T15:50:21;14.30;27.30
33105;DHT22;19476;51.448;6.674;2023-02-28T15:52:47;14.20;27.40
33105;DHT22;19476;51.448;6.674;2023-02-28T15:55:21;14.10;27.50
33105;DHT22;19476;51.448;6.674;2023-02-28T15:57:53;14.00;27.60
33105;DHT22;19476;51.448;6.674;2023-02-28T16:00:22;13.90;27.70
33105;DHT22;19476;51.448;6.674;2023-02-28T16:02:48;13.90;27.70
33105;DHT22;19476;51.448;6.674;2023-02-28T16:05:23;13.80;27.80
33105;DHT22;19476;51.448;6.674;2023-02-28T16:07:55;13.70;27.70
33105;DHT22;19476;51.448;6.674;2023-02-28T16:10:21;13.60;27.80
33105;DHT22;19476;51.448;6.674;2023-02-28T16:12:52;13.60;28.00
33105;DHT22;19476;51.448;6.674;2023-02-28T16:15:24;13.50;28.00
33105;DHT22;19476;51.448;6.674;2023-02-28T16:17:51;13.50;28.00
33105;DHT22;19476;51.448;6.674;2023-02-28T16:20:23;13.40;28.00
33105;DHT22;19476;51.448;6.674;2023-02-28T16:22:49;13.40;28.30
33105;DHT22;19476;51.448;6.674;2023-02-28T16:25:18;13.30;28.40
33105;DHT22;19476;51.448;6.674;2023-02-28T16:27:48;13.30;28.70
33105;DHT22;19476;51.448;6.674;2023-02-28T16:30:22;13.20;28.80
33105;DHT22;19476;51.448;6.674;2023-02-28T16:32:49;13.20;28.70
33105;DHT22;19476;51.448;6.674;2023-02-28T16:35:15;13.20;28.70
33105;DHT22;19476;51.448;6.674;2023-02-28T16:37:41;13.10;28.60
33105;DHT22;19476;51.448;6.674;2023-02-28T16:40:13;13.10;28.60
33105;DHT22;19476;51.448;6.674;2023-02-28T16:42:42;13.00;28.70
33105;DHT22;19476;51.448;6.674;2023-02-28T16:45:19;12.90;28.80
33105;DHT22;19476;51.448;6.674;2023-02-28T16:47:46;12.90;29.40
33105;DHT22;19476;51.448;6.674;2023-02-28T16:50:24;12.80;29.40
33105;DHT22;19476;51.448;6.674;2023-02-28T16:52:53;12.80;29.10
33105;DHT22;19476;51.448;6.674;2023-02-28T16:55:21;12.70;29.10
33105;DHT22;19476;51.448;6.674;2023-02-28T16:57:52;12.60;29.20
33105;DHT22;19476;51.448;6.674;2023-02-28T17:00:18;12.60;29.30
33105;DHT22;19476;51.448;6.674;2023-02-28T17:02:44;12.50;29.20
33105;DHT22;19476;51.448;6.674;2023-02-28T17:05:14;12.50;29.30
33105;DHT22;19476;51.448;6.674;2023-02-28T17:07:41;12.50;29.40
33105;DHT22;19476;51.448;6.674;2023-02-28T17:12:42;12.50;29.50
33105;DHT22;19476;51.448;6.674;2023-02-28T17:15:10;12.40;29.50
33105;DHT22;19476;51.448;6.674;2023-02-28T17:17:36;12.40;29.60
33105;DHT22;19476;51.448;6.674;2023-02-28T17:20:03;12.40;29.60
33105;DHT22;19476;51.448;6.674;2023-02-28T17:22:29;12.30;29.60
33105;DHT22;19476;51.448;6.674;2023-02-28T17:24:55;12.30;29.60
33105;DHT22;19476;51.448;6.674;2023-02-28T17:27:24;12.30;29.70
33105;DHT22;19476;51.448;6.674;2023-02-28T17:29:50;12.30;29.70
33105;DHT22;19476;51.448;6.674;2023-02-28T17:32:16;12.20;29.80
33105;DHT22;19476;51.448;6.674;2023-02-28T17:34:43;12.20;29.80
33105;DHT22;19476;51.448;6.674;2023-02-28T17:37:09;12.20;29.90
33105;DHT22;19476;51.448;6.674;2023-02-28T17:39:35;12.20;29.90
33105;DHT22;19476;51.448;6.674;2023-02-28T17:42:01;12.20;29.90
33105;DHT22;19476;51.448;6.674;2023-02-28T17:44:27;11.80;29.80
33105;DHT22;19476;51.448;6.674;2023-02-28T17:46:54;12.20;30.00
33105;DHT22;19476;51.448;6.674;2023-02-28T17:49:20;12.10;30.00
33105;DHT22;19476;51.448;6.674;2023-02-28T17:51:47;12.10;30.10
33105;DHT22;19476;51.448;6.674;2023-02-28T17:54:14;12.10;30.10
33105;DHT22;19476;51.448;6.674;2023-02-28T17:56:40;12.10;30.10
33105;DHT22;19476;51.448;6.674;2023-02-28T17:59:09;12.10;30.10
33105;DHT22;19476;51.448;6.674;2023-02-28T18:01:36;12.10;30.20
33105;DHT22;19476;51.448;6.674;2023-02-28T18:04:02;12.10;30.20
33105;DHT22;19476;51.448;6.674;2023-02-28T18:06:36;12.10;30.30
33105;DHT22;19476;51.448;6.674;2023-02-28T18:09:12;12.10;30.40
33105;DHT22;19476;51.448;6.674;2023-02-28T18:11:38;12.10;30.40
33105;DHT22;19476;51.448;6.674;2023-02-28T18:14:07;12.10;30.40
33105;DHT22;19476;51.448;6.674;2023-02-28T18:16:33;12.00;30.40
33105;DHT22;19476;51.448;6.674;2023-02-28T18:19:00;12.10;30.50
33105;DHT22;19476;51.448;6.674;2023-02-28T18:21:30;12.10;30.60
33105;DHT22;19476;51.448;6.674;2023-02-28T18:23:57;12.00;30.60
33105;DHT22;19476;51.448;6.674;2023-02-28T18:26:23;12.00;30.50
33105;DHT22;19476;51.448;6.674;2023-02-28T18:28:48;12.00;30.60
33105;DHT22;19476;51.448;6.674;2023-02-28T18:31:17;12.00;30.60
33105;DHT22;19476;51.448;6.674;2023-02-28T18:33:46;12.00;30.70
33105;DHT22;19476;51.448;6.674;2023-02-28T18:36:12;12.00;30.70
33105;DHT22;19476;51.448;6.674;2023-02-28T18:38:38;12.10;30.70
33105;DHT22;19476;51.448;6.674;2023-02-28T18:41:06;12.00;30.70
33105;DHT22;19476;51.448;6.674;2023-02-28T18:43:33;12.10;30.80